CHX20 KPIE-KPIE
Flight info
| Callsign | CHX20 |
|---|---|
| Flight time | 0h 3m |
| Altitude | 1000 |
| Route | KPIE-VFR-KPIE |
| Aircraft | UH1/L-G/C |
Departure
| Time | 2026-04-21 20:13 |
|---|---|
| Airport | St. Petersburg Clearwater International Airport (KPIE) |
Arrival
| Time | 2026-04-21 20:16 |
|---|---|
| Airport | St. Petersburg Clearwater International Airport (KPIE) |
| Time | Latitude | Longitude | Altitude | Speed | Heading |
|---|---|---|---|---|---|
| 2026-04-21 20:07 | 27.91020 | -82.69621 | 21 ft | 0 kts | 98° |
| 2026-04-21 20:08 | 27.91017 | -82.69616 | 37 ft | 2 kts | 98° |
| 2026-04-21 20:09 | 27.90868 | -82.69464 | 126 ft | 79 kts | 147° |
| 2026-04-21 20:09 | 27.90188 | -82.69211 | 150 ft | 117 kts | 141° |
| 2026-04-21 20:09 | 27.90262 | -82.68478 | 260 ft | 126 kts | 19° |
| 2026-04-21 20:09 | 27.91167 | -82.68286 | 233 ft | 133 kts | 39° |
| 2026-04-21 20:10 | 27.91363 | -82.67583 | 265 ft | 75 kts | 66° |
| 2026-04-21 20:10 | 27.91628 | -82.66772 | 118 ft | 118 kts | 62° |
| 2026-04-21 20:10 | 27.91875 | -82.65869 | 183 ft | 124 kts | 79° |
| 2026-04-21 20:10 | 27.91461 | -82.65007 | 86 ft | 144 kts | 141° |
| 2026-04-21 20:11 | 27.90543 | -82.64539 | 121 ft | 140 kts | 139° |
| 2026-04-21 20:11 | 27.89772 | -82.63907 | 192 ft | 137 kts | 134° |
| 2026-04-21 20:11 | 27.88879 | -82.63453 | 149 ft | 146 kts | 155° |
| 2026-04-21 20:11 | 27.87884 | -82.63261 | 255 ft | 139 kts | 156° |
| 2026-04-21 20:12 | 27.86984 | -82.62994 | 428 ft | 138 kts | 149° |
| 2026-04-21 20:12 | 27.86101 | -82.62535 | 484 ft | 138 kts | 137° |
| 2026-04-21 20:12 | 27.85296 | -82.61914 | 370 ft | 146 kts | 138° |
| 2026-04-21 20:12 | 27.84381 | -82.61716 | 215 ft | 144 kts | 201° |
| 2026-04-21 20:13 | 27.83641 | -82.62286 | 201 ft | 107 kts | 199° |
| 2026-04-21 20:13 | 27.83188 | -82.62363 | 736 ft | 59 kts | 150° |
| 2026-04-21 20:13 | 27.82235 | -82.62425 | 521 ft | 139 kts | 183° |
| 2026-04-21 20:13 | 27.81303 | -82.62721 | 436 ft | 133 kts | 173° |
| 2026-04-21 20:14 | 27.80701 | -82.62833 | 381 ft | 124 kts | 170° |
| 2026-04-21 20:14 | 27.79844 | -82.62912 | 177 ft | 128 kts | 160° |
| 2026-04-21 20:14 | 27.79069 | -82.62844 | 349 ft | 102 kts | 155° |
| 2026-04-21 20:14 | 27.78373 | -82.62656 | 180 ft | 90 kts | 146° |
| 2026-04-21 20:15 | 27.77772 | -82.62578 | 346 ft | 85 kts | 156° |
| 2026-04-21 20:15 | 27.77179 | -82.62330 | 264 ft | 83 kts | 140° |
| 2026-04-21 20:15 | 27.76663 | -82.62510 | 126 ft | 68 kts | 195° |
| 2026-04-21 20:15 | 27.76412 | -82.62825 | 700 ft | 88 kts | 227° |
| 2026-04-21 20:16 | 27.76052 | -82.63457 | 74 ft | 89 kts | 174° |
| 2026-04-21 20:16 | 27.75990 | -82.63159 | 93 ft | 85 kts | 359° |
| 2026-04-21 20:16 | 27.76154 | -82.63192 | 84 ft | 8 kts | 69° |
| 2026-04-21 20:16 | 27.76184 | -82.63172 | 64 ft | 5 kts | 240° |
| 2026-04-21 20:17 | 27.76184 | -82.63189 | 43 ft | 0 kts | 251° |
| 2026-04-21 20:17 | 27.76181 | -82.63201 | 47 ft | 5 kts | 254° |
| 2026-04-21 20:17 | 27.76176 | -82.63245 | 195 ft | 10 kts | 261° |
| 2026-04-21 20:17 | 27.76156 | -82.63546 | 666 ft | 82 kts | 251° |
| 2026-04-21 20:18 | 27.75992 | -82.64346 | 247 ft | 123 kts | 244° |
| 2026-04-21 20:18 | 27.75734 | -82.65225 | 145 ft | 113 kts | 237° |
| 2026-04-21 20:18 | 27.75499 | -82.65976 | 161 ft | 96 kts | 239° |
| 2026-04-21 20:18 | 27.75313 | -82.66724 | 178 ft | 106 kts | 248° |
| 2026-04-21 20:19 | 27.75005 | -82.67480 | 181 ft | 107 kts | 219° |
| 2026-04-21 20:19 | 27.74506 | -82.68124 | 137 ft | 111 kts | 217° |
| 2026-04-21 20:19 | 27.73934 | -82.68682 | 128 ft | 110 kts | 206° |
| 2026-04-21 20:19 | 27.73283 | -82.68953 | 126 ft | 96 kts | 158° |
| 2026-04-21 20:20 | 27.72661 | -82.68830 | 183 ft | 89 kts | 156° |
| 2026-04-21 20:20 | 27.72025 | -82.68842 | 133 ft | 88 kts | 166° |
| 2026-04-21 20:20 | 27.71506 | -82.68976 | 114 ft | 64 kts | 255° |
| 2026-04-21 20:20 | 27.71415 | -82.69066 | 28 ft | 0 kts | 217° |